createdAt,value
2018-09-14T00:01:42.444Z,79.25
2018-09-14T00:04:12.523Z,80.65
2018-09-14T00:06:42.642Z,80.21
2018-09-14T00:09:13.802Z,79.52
2018-09-14T00:11:44.133Z,80.75
2018-09-14T00:14:14.342Z,81.63
2018-09-14T00:16:44.244Z,79.92
2018-09-14T00:19:14.327Z,81.46
2018-09-14T00:21:45.158Z,80.48
2018-09-14T00:24:15.375Z,79.93
2018-09-14T00:26:45.358Z,78.54
2018-09-14T00:29:15.411Z,79.82
2018-09-14T00:31:45.381Z,78.99
2018-09-14T00:34:15.196Z,80.14
2018-09-14T00:36:45.242Z,79.75
2018-09-14T00:39:15.226Z,81.24
2018-09-14T00:41:45.553Z,80.14
2018-09-14T00:44:15.676Z,79.27
2018-09-14T00:46:46.193Z,78.04
2018-09-14T00:49:16.553Z,80.63
2018-09-14T00:51:46.577Z,81.43
2018-09-14T00:54:16.399Z,81.53
2018-09-14T00:56:46.392Z,79.82
2018-09-14T00:59:16.449Z,82.00
2018-09-14T01:01:46.599Z,80.54
2018-09-14T01:04:16.646Z,79.02
2018-09-14T01:06:46.570Z,79.32
2018-09-14T01:09:21.565Z,81.66
2018-09-14T01:11:51.584Z,83.12
2018-09-14T01:14:21.584Z,83.93
2018-09-14T01:16:51.487Z,84.69
2018-09-14T01:19:21.557Z,84.18
2018-09-14T01:21:51.786Z,84.70
2018-09-14T01:24:21.798Z,85.15
2018-09-14T01:26:51.818Z,84.53
2018-09-14T01:29:21.803Z,83.33
2018-09-14T01:31:51.946Z,82.09
2018-09-14T01:34:22.945Z,80.60
2018-09-14T01:36:52.892Z,80.56
2018-09-14T01:39:22.970Z,80.33
2018-09-14T01:41:52.922Z,79.17
2018-09-14T01:44:22.712Z,79.31
2018-09-14T01:46:52.747Z,79.18
2018-09-14T01:49:22.759Z,79.18
2018-09-14T01:51:52.784Z,78.73
2018-09-14T01:54:22.630Z,78.47
2018-09-14T01:56:52.947Z,78.87
2018-09-14T01:59:22.810Z,78.08
2018-09-14T02:01:52.887Z,79.16
2018-09-14T02:04:22.929Z,79.41
2018-09-14T02:06:53.014Z,78.54
2018-09-14T02:09:23.117Z,77.96
2018-09-14T02:11:53.093Z,78.85
2018-09-14T02:14:23.077Z,79.21
2018-09-14T02:16:52.944Z,78.89
2018-09-14T02:19:22.791Z,80.04
2018-09-14T02:21:52.880Z,80.30
2018-09-14T02:24:22.936Z,79.77
2018-09-14T02:26:52.984Z,79.17
2018-09-14T02:29:22.938Z,81.19
2018-09-14T02:31:52.988Z,83.81
2018-09-14T02:34:22.940Z,83.49
2018-09-14T02:36:53.004Z,84.08
2018-09-14T02:39:23.032Z,82.51
2018-09-14T02:41:54.093Z,80.81
2018-09-14T02:44:23.948Z,79.44
2018-09-14T02:46:57.073Z,78.91
2018-09-14T02:49:27.193Z,78.35
2018-09-14T02:51:57.103Z,78.08
2018-09-14T02:54:27.099Z,78.26
2018-09-14T02:56:57.205Z,79.31
2018-09-14T02:59:27.321Z,79.33
2018-09-14T03:01:57.328Z,79.75
2018-09-14T03:04:27.080Z,82.46
2018-09-14T03:06:57.090Z,82.11
2018-09-14T03:09:27.195Z,81.29
2018-09-14T03:11:57.534Z,81.31
2018-09-14T03:14:27.805Z,80.88
2018-09-14T03:16:57.923Z,80.69
2018-09-14T03:19:27.937Z,80.35
2018-09-14T03:21:57.969Z,79.37
2018-09-14T03:24:27.944Z,79.14
2018-09-14T03:26:57.900Z,82.82
2018-09-14T03:29:27.738Z,81.72
2018-09-14T03:31:57.757Z,81.98
2018-09-14T03:34:27.713Z,82.38
2018-09-14T03:36:57.792Z,83.96
2018-09-14T03:39:27.744Z,84.77
2018-09-14T03:41:57.789Z,84.52
2018-09-14T03:44:27.756Z,83.82
2018-09-14T03:46:57.683Z,83.98
2018-09-14T03:49:27.724Z,82.68
2018-09-14T03:51:57.801Z,83.10
2018-09-14T03:54:27.836Z,82.94
2018-09-14T03:56:57.964Z,82.55
2018-09-14T03:59:28.034Z,81.74
2018-09-14T04:01:58.034Z,79.66
2018-09-14T04:04:28.127Z,78.33
2018-09-14T04:06:58.143Z,78.87
2018-09-14T04:09:28.136Z,78.58
2018-09-14T04:11:58.796Z,79.00
2018-09-14T04:14:28.776Z,79.27
2018-09-14T04:16:58.840Z,80.23
2018-09-14T04:19:28.839Z,80.23
2018-09-14T04:21:58.926Z,80.18
2018-09-14T04:24:28.919Z,80.28
2018-09-14T04:26:59.027Z,80.85
2018-09-14T04:29:28.943Z,80.32
2018-09-14T04:31:58.909Z,79.86
2018-09-14T04:34:29.121Z,80.21
2018-09-14T04:36:59.024Z,79.56
2018-09-14T04:39:29.093Z,78.91
2018-09-14T04:41:59.068Z,79.47
2018-09-14T04:44:29.020Z,82.11
2018-09-14T04:46:59.052Z,81.99
2018-09-14T04:49:28.960Z,82.83
2018-09-14T04:51:58.990Z,83.12
2018-09-14T04:54:29.082Z,83.11
2018-09-14T04:56:58.994Z,82.08
2018-09-14T04:59:31.016Z,81.15
2018-09-14T05:02:06.584Z,82.38
2018-09-14T05:04:36.644Z,83.49
2018-09-14T05:07:06.609Z,84.07
2018-09-14T05:09:36.613Z,84.29
2018-09-14T05:12:06.855Z,84.44
2018-09-14T05:14:36.783Z,82.36
2018-09-14T05:17:06.807Z,80.88
2018-09-14T05:19:36.928Z,79.96
2018-09-14T05:22:06.814Z,79.75
2018-09-14T05:24:36.923Z,81.31
2018-09-14T05:27:06.826Z,81.14
2018-09-14T05:29:36.888Z,83.54
2018-09-14T05:32:07.090Z,81.86
2018-09-14T05:34:37.047Z,82.50
2018-09-14T05:37:07.240Z,81.45
2018-09-14T05:39:37.049Z,81.07
2018-09-14T05:42:07.004Z,80.38
2018-09-14T05:44:37.040Z,79.88
2018-09-14T05:47:07.643Z,82.08
2018-09-14T05:49:37.667Z,83.50
2018-09-14T05:52:07.888Z,84.38
2018-09-14T05:54:39.807Z,84.93
2018-09-14T05:57:09.817Z,84.51
2018-09-14T05:59:40.025Z,85.19
2018-09-14T06:02:10.057Z,84.54
2018-09-14T06:04:42.652Z,83.55
2018-09-14T06:07:13.312Z,84.89
2018-09-14T06:09:44.166Z,85.00
2018-09-14T06:12:14.258Z,83.51
2018-09-14T06:14:44.725Z,82.22
2018-09-14T06:17:15.327Z,81.91
2018-09-14T06:19:45.392Z,80.77
2018-09-14T06:22:15.518Z,80.32
2018-09-14T06:24:45.550Z,80.11
2018-09-14T06:27:15.776Z,79.72
2018-09-14T06:29:45.836Z,80.84
2018-09-14T06:32:15.834Z,83.97
2018-09-14T06:34:49.025Z,82.47
2018-09-14T06:37:19.109Z,81.69
2018-09-14T06:39:51.935Z,83.58
2018-09-14T06:42:21.986Z,83.42
2018-09-14T06:44:52.375Z,82.48
2018-09-14T06:47:22.478Z,84.45
2018-09-14T06:49:52.615Z,85.32
2018-09-14T06:52:22.588Z,86.51
2018-09-14T06:54:52.555Z,86.00
2018-09-14T06:57:23.565Z,86.66
2018-09-14T06:59:53.694Z,84.62
2018-09-14T07:02:23.683Z,83.89
2018-09-14T07:04:53.823Z,85.62
2018-09-14T07:07:23.991Z,86.74
2018-09-14T07:09:54.105Z,89.91
2018-09-14T07:12:24.260Z,89.75
2018-09-14T07:14:54.444Z,90.82
2018-09-14T07:17:26.132Z,88.04
2018-09-14T07:19:56.202Z,86.44
2018-09-14T07:22:26.202Z,86.78
2018-09-14T07:24:56.300Z,86.69
2018-09-14T07:27:26.241Z,86.68
2018-09-14T07:29:56.419Z,86.34
2018-09-14T07:32:26.479Z,86.34
2018-09-14T07:34:56.384Z,87.65
2018-09-14T07:37:26.471Z,88.61
2018-09-14T07:39:56.462Z,87.20
2018-09-14T07:42:26.509Z,89.41
2018-09-14T07:44:56.492Z,89.94
2018-09-14T07:47:26.542Z,90.13
2018-09-14T07:49:56.635Z,88.87
2018-09-14T07:52:26.650Z,87.89
2018-09-14T07:54:56.600Z,87.45
2018-09-14T07:57:26.660Z,86.66
2018-09-14T07:59:57.307Z,87.38
2018-09-14T08:02:28.259Z,87.98
2018-09-14T08:04:58.293Z,86.87
2018-09-14T08:07:28.382Z,88.25
2018-09-14T08:09:59.287Z,87.02
2018-09-14T08:12:29.439Z,89.55
2018-09-14T08:14:59.326Z,87.87
2018-09-14T08:17:29.203Z,87.72
2018-09-14T08:19:59.258Z,86.89
2018-09-14T08:22:29.117Z,87.32
2018-09-14T08:24:59.098Z,86.56
2018-09-14T08:27:29.024Z,86.11
2018-09-14T08:29:58.964Z,85.92
2018-09-14T08:32:29.036Z,85.62
2018-09-14T08:34:58.772Z,85.69
2018-09-14T08:37:28.775Z,84.98
2018-09-14T08:39:58.696Z,84.88
2018-09-14T08:42:29.233Z,84.16
2018-09-14T08:44:59.126Z,84.08
2018-09-14T08:47:29.034Z,84.16
2018-09-14T08:49:58.947Z,82.57
2018-09-14T08:52:28.959Z,82.28
2018-09-14T08:54:58.845Z,81.52
2018-09-14T08:57:28.780Z,81.58
2018-09-14T08:59:58.830Z,80.45
2018-09-14T09:02:28.708Z,81.07
2018-09-14T09:04:58.647Z,80.64
2018-09-14T09:07:28.643Z,78.00
2018-09-14T09:09:58.482Z,79.34
2018-09-14T09:12:28.420Z,79.28
2018-09-14T09:14:58.428Z,77.64
2018-09-14T09:20:04.927Z,76.88
2018-09-14T09:22:34.923Z,76.97
2018-09-14T09:25:05.275Z,74.43
2018-09-14T09:27:35.214Z,72.82
2018-09-14T09:30:05.205Z,70.76
2018-09-14T09:32:35.190Z,73.01
2018-09-14T09:35:05.160Z,72.50
2018-09-14T09:37:35.747Z,72.04
2018-09-14T09:40:19.040Z,70.29
2018-09-14T09:42:48.964Z,70.80
2018-09-14T09:45:18.959Z,68.97
2018-09-14T09:47:48.859Z,67.84
2018-09-14T09:50:18.792Z,67.90
2018-09-14T09:52:48.685Z,69.65
2018-09-14T09:55:18.580Z,70.30
2018-09-14T09:57:48.503Z,68.68
2018-09-14T10:00:23.446Z,68.40
2018-09-14T10:02:59.138Z,67.81
2018-09-14T10:05:34.227Z,68.24
2018-09-14T10:08:04.198Z,68.93
2018-09-14T10:10:34.140Z,63.61
2018-09-14T10:13:04.167Z,60.86
2018-09-14T10:15:34.227Z,63.51
2018-09-14T10:18:04.174Z,63.42
2018-09-14T10:20:34.126Z,64.00
2018-09-14T10:23:04.044Z,62.91
2018-09-14T10:25:34.019Z,59.33
2018-09-14T10:28:04.011Z,62.01
2018-09-14T10:30:33.944Z,61.81
2018-09-14T10:33:03.859Z,62.63
2018-09-14T10:35:33.750Z,64.15
2018-09-14T10:38:03.648Z,63.72
2018-09-14T10:40:33.589Z,65.17
2018-09-14T10:43:03.531Z,65.17
2018-09-14T10:45:33.417Z,61.52
2018-09-14T10:48:03.392Z,62.83
2018-09-14T10:50:33.706Z,62.58
2018-09-14T10:53:04.220Z,60.77
2018-09-14T10:55:34.068Z,61.35
2018-09-14T10:58:03.944Z,60.24
2018-09-14T11:00:35.300Z,59.49
2018-09-14T11:03:05.141Z,59.40
2018-09-14T11:05:35.024Z,57.45
2018-09-14T11:08:04.832Z,58.42
2018-09-14T11:10:34.819Z,59.45
2018-09-14T11:13:04.860Z,58.16
2018-09-14T11:15:34.731Z,58.42
2018-09-14T11:18:04.615Z,59.20
2018-09-14T11:20:34.616Z,58.90
2018-09-14T11:23:04.277Z,57.27
2018-09-14T11:25:34.387Z,57.11
2018-09-14T11:28:04.326Z,56.72
2018-09-14T11:30:34.299Z,56.52
2018-09-14T11:33:20.627Z,53.96
2018-09-14T11:35:52.220Z,55.39
2018-09-14T11:38:22.386Z,55.79
2018-09-14T11:41:12.329Z,54.73
2018-09-14T12:40:25.059Z,52.28
2018-09-14T12:42:54.892Z,53.17
2018-09-14T12:45:24.715Z,51.27
2018-09-14T12:47:54.607Z,50.10
2018-09-14T12:50:24.503Z,51.47
2018-09-14T12:52:54.359Z,52.72
2018-09-14T12:55:24.226Z,51.97
2018-09-14T12:58:19.414Z,51.63
2018-09-14T13:00:50.203Z,50.74
2018-09-14T13:03:20.034Z,52.31
2018-09-14T13:05:50.264Z,50.01
2018-09-14T13:08:20.048Z,50.76
2018-09-14T13:10:49.984Z,50.04
2018-09-14T13:13:19.857Z,50.95
2018-09-14T13:15:49.646Z,49.41
2018-09-14T13:18:19.471Z,49.15
2018-09-14T13:20:49.395Z,51.21
2018-09-14T13:23:19.201Z,48.70
2018-09-14T13:25:49.554Z,48.05
2018-09-14T13:28:19.419Z,50.06
2018-09-14T13:30:49.280Z,48.50
2018-09-14T13:33:19.034Z,48.54
2018-09-14T13:35:48.669Z,48.05
2018-09-14T13:38:18.376Z,50.16
2018-09-14T13:40:48.263Z,50.23
2018-09-14T13:43:17.866Z,50.67
2018-09-14T13:45:47.520Z,51.62
2018-09-14T13:48:17.237Z,50.33
2018-09-14T13:50:46.876Z,50.38
2018-09-14T13:53:16.526Z,50.69
2018-09-14T13:55:46.383Z,49.83
2018-09-14T13:58:16.139Z,48.25
2018-09-14T14:00:45.762Z,47.96
2018-09-14T14:03:15.630Z,48.24
2018-09-14T14:05:45.320Z,47.71
2018-09-14T14:08:14.962Z,48.57
2018-09-14T14:10:44.751Z,48.40
2018-09-14T14:13:14.496Z,48.46
2018-09-14T14:15:44.213Z,47.50
2018-09-14T14:18:13.844Z,47.94
2018-09-14T14:20:45.500Z,48.63
2018-09-14T14:23:15.414Z,47.52
2018-09-14T14:25:45.332Z,48.19
2018-09-14T14:28:15.268Z,48.40
2018-09-14T14:30:45.048Z,48.75
2018-09-14T14:33:14.835Z,47.63
2018-09-14T14:35:44.810Z,48.30
2018-09-14T14:38:14.807Z,47.62
2018-09-14T14:40:44.661Z,49.25
2018-09-14T14:43:14.461Z,49.36
2018-09-14T14:45:44.374Z,47.58
2018-09-14T14:48:14.265Z,46.94
2018-09-14T14:50:44.225Z,47.25
2018-09-14T14:53:14.154Z,47.37
2018-09-14T14:55:44.028Z,47.72
2018-09-14T14:58:13.940Z,48.73
2018-09-14T15:00:43.791Z,45.84
2018-09-14T15:03:13.756Z,47.98
2018-09-14T15:05:43.807Z,46.59
2018-09-14T15:08:13.781Z,48.69
2018-09-14T15:10:43.832Z,48.31
2018-09-14T15:13:13.764Z,48.27
2018-09-14T15:19:10.823Z,47.39
2018-09-14T16:07:20.669Z,46.62
2018-09-14T16:09:51.025Z,47.92
2018-09-14T16:12:21.369Z,47.79
2018-09-14T16:14:51.422Z,42.00
2018-09-14T16:17:21.647Z,43.67
2018-09-14T16:19:52.159Z,43.78
2018-09-14T16:22:22.026Z,42.95
2018-09-14T16:24:52.603Z,43.76
2018-09-14T16:27:22.552Z,45.15
2018-09-14T16:29:52.280Z,44.46
2018-09-14T16:32:22.415Z,44.32
2018-09-14T16:34:52.406Z,44.85
2018-09-14T16:37:22.382Z,44.60
2018-09-14T16:39:52.472Z,45.83
2018-09-14T16:42:22.472Z,44.81
2018-09-14T16:44:53.243Z,45.54
2018-09-14T16:47:23.397Z,45.07
2018-09-14T16:49:53.406Z,45.31
2018-09-14T16:52:23.361Z,45.12
2018-09-14T16:54:53.115Z,46.65
2018-09-14T16:57:23.107Z,46.21
2018-09-14T16:59:53.266Z,46.81
2018-09-14T17:02:23.436Z,46.31
2018-09-14T17:04:53.489Z,47.08
2018-09-14T17:07:23.487Z,46.07
2018-09-14T17:09:53.349Z,47.01
2018-09-14T17:12:23.292Z,47.57
2018-09-14T17:14:53.279Z,47.28
2018-09-14T17:17:23.358Z,47.05
2018-09-14T17:19:53.412Z,47.64
2018-09-14T17:22:23.239Z,48.32
2018-09-14T17:24:53.655Z,48.14
2018-09-14T17:27:23.374Z,47.54
2018-09-14T17:29:53.083Z,48.12
2018-09-14T17:32:23.099Z,48.99
2018-09-14T17:34:52.773Z,47.31
2018-09-14T17:37:22.591Z,47.43
2018-09-14T17:39:52.389Z,50.33
2018-09-14T17:42:22.325Z,51.63
2018-09-14T17:44:52.172Z,51.97
2018-09-14T17:47:22.103Z,52.30
2018-09-14T17:49:52.765Z,52.28
2018-09-14T17:52:23.152Z,53.21
2018-09-14T17:54:53.812Z,53.04
2018-09-14T17:57:23.648Z,54.23
2018-09-14T17:59:53.974Z,54.86
2018-09-14T18:02:23.844Z,55.51
2018-09-14T18:04:56.019Z,56.03
2018-09-14T18:07:25.910Z,56.54
2018-09-14T18:09:57.007Z,56.67
2018-09-14T18:12:28.175Z,57.49
2018-09-14T18:14:58.246Z,57.28
2018-09-14T18:17:28.551Z,57.10
2018-09-14T18:19:58.492Z,57.22
2018-09-14T18:22:29.247Z,58.36
2018-09-14T18:24:59.475Z,58.46
2018-09-14T18:27:29.696Z,59.31
2018-09-14T18:30:02.831Z,59.12
2018-09-14T18:32:33.560Z,58.96
2018-09-14T18:35:04.127Z,60.44
2018-09-14T18:37:34.140Z,61.44
2018-09-14T18:40:04.157Z,61.11
2018-09-14T18:42:34.231Z,60.95
2018-09-14T18:45:04.246Z,61.88
2018-09-14T18:47:35.326Z,61.40
2018-09-14T18:50:05.718Z,61.37
2018-09-14T18:52:36.206Z,61.30
2018-09-14T18:55:07.018Z,60.42
2018-09-14T18:57:36.946Z,61.44
2018-09-14T19:00:06.861Z,61.04
2018-09-14T19:02:37.305Z,62.22
2018-09-14T19:05:23.469Z,61.52
2018-09-14T19:07:54.774Z,62.44
2018-09-14T19:10:24.999Z,63.81
2018-09-14T19:12:55.097Z,63.45
2018-09-14T19:15:25.129Z,63.70
2018-09-14T19:17:55.189Z,64.52
2018-09-14T19:20:24.918Z,64.47
2018-09-14T19:22:55.022Z,64.45
2018-09-14T19:25:25.027Z,64.27
2018-09-14T19:27:55.234Z,63.63
2018-09-14T19:30:25.468Z,63.63
2018-09-14T19:32:55.837Z,65.33
2018-09-14T19:35:25.998Z,64.92
2018-09-14T19:37:57.038Z,65.84
2018-09-14T19:40:27.238Z,66.12
2018-09-14T19:42:57.473Z,65.30
2018-09-14T19:45:27.263Z,64.92
2018-09-14T19:47:57.284Z,65.25
2018-09-14T19:50:27.388Z,64.52
2018-09-14T19:52:57.508Z,64.23
2018-09-14T19:55:27.641Z,64.98
2018-09-14T19:57:57.643Z,65.12
2018-09-14T20:00:27.742Z,66.35
2018-09-14T20:02:58.794Z,66.44
2018-09-14T20:05:28.986Z,65.37
2018-09-14T20:07:59.161Z,64.74
2018-09-14T20:10:29.072Z,64.71
2018-09-14T20:12:59.555Z,64.36
2018-09-14T20:15:29.868Z,64.90
2018-09-14T20:17:59.852Z,66.49
2018-09-14T20:20:41.494Z,68.90
2018-09-14T20:23:11.347Z,69.23
2018-09-14T20:25:41.641Z,71.15
2018-09-14T20:28:11.779Z,69.99
2018-09-14T20:30:42.196Z,67.04
2018-09-14T20:33:12.329Z,69.42
2018-09-14T20:35:42.386Z,66.88
2018-09-14T20:38:12.423Z,66.08
2018-09-14T20:40:42.235Z,65.71
2018-09-14T20:43:12.265Z,65.48
2018-09-14T20:45:42.045Z,65.46
2018-09-14T20:48:12.246Z,67.79
2018-09-14T20:50:42.316Z,68.88
2018-09-14T20:53:12.400Z,70.54
2018-09-14T20:55:43.182Z,69.12
2018-09-14T20:58:13.451Z,67.94
2018-09-14T21:00:43.648Z,68.36
2018-09-14T21:03:13.713Z,66.45
2018-09-14T21:05:43.671Z,68.91
2018-09-14T21:08:13.756Z,68.32
2018-09-14T21:10:43.820Z,68.16
2018-09-14T21:13:13.739Z,67.64
2018-09-14T21:15:43.667Z,68.94
2018-09-14T21:18:13.733Z,67.66
2018-09-14T21:20:43.720Z,67.77
2018-09-14T21:23:13.887Z,69.26
2018-09-14T21:25:44.125Z,68.47
2018-09-14T21:28:14.277Z,67.52
2018-09-14T21:30:44.065Z,66.40
2018-09-14T21:33:13.953Z,66.13
2018-09-14T21:35:43.722Z,66.75
2018-09-14T21:38:13.577Z,67.87
2018-09-14T21:40:43.479Z,67.40
2018-09-14T21:43:13.284Z,68.87
2018-09-14T21:45:43.309Z,69.19
2018-09-14T21:48:13.240Z,69.15
2018-09-14T21:50:43.205Z,68.14
2018-09-14T21:53:13.077Z,68.65
2018-09-14T21:55:43.067Z,69.01
2018-09-14T21:58:13.015Z,69.89
2018-09-14T22:00:47.848Z,69.94
2018-09-14T22:03:17.704Z,69.62
2018-09-14T22:05:47.548Z,68.67
2018-09-14T22:08:30.031Z,68.56
2018-09-14T22:10:59.815Z,67.89
2018-09-14T22:13:29.608Z,68.71
2018-09-14T22:18:56.588Z,70.78
2018-09-14T22:21:26.595Z,70.05
2018-09-14T22:23:56.377Z,68.40
2018-09-14T22:26:26.143Z,68.46
2018-09-14T22:28:56.152Z,69.07
2018-09-14T22:31:26.139Z,68.61
2018-09-14T22:33:56.142Z,68.34
2018-09-14T22:36:26.111Z,69.93
2018-09-14T22:38:56.084Z,71.08
2018-09-14T22:41:25.904Z,70.77
2018-09-14T22:43:55.972Z,70.06
2018-09-14T22:46:25.967Z,71.64
2018-09-14T22:48:55.971Z,71.46
2018-09-14T22:51:26.030Z,72.09
2018-09-14T22:53:56.218Z,71.91
2018-09-14T22:56:26.154Z,71.06
2018-09-14T22:58:56.071Z,71.69
2018-09-14T23:01:26.131Z,70.63
2018-09-14T23:03:55.926Z,69.93
2018-09-14T23:06:25.672Z,69.54
2018-09-14T23:08:55.535Z,69.59
2018-09-14T23:11:25.564Z,69.79
2018-09-14T23:13:55.398Z,70.51
2018-09-14T23:16:25.426Z,70.41
2018-09-14T23:18:55.267Z,72.88
2018-09-14T23:21:25.229Z,72.78
2018-09-14T23:23:55.037Z,72.29
2018-09-14T23:26:25.603Z,73.18
2018-09-14T23:28:55.467Z,73.85
2018-09-14T23:31:25.494Z,74.44
2018-09-14T23:33:55.535Z,71.86
2018-09-14T23:36:25.411Z,72.00
2018-09-14T23:38:55.175Z,73.96
2018-09-14T23:41:25.156Z,74.52
2018-09-14T23:43:55.076Z,74.18
2018-09-14T23:46:25.139Z,73.53
2018-09-14T23:48:54.976Z,73.30
2018-09-14T23:51:24.885Z,71.71
2018-09-14T23:53:54.867Z,71.03
2018-09-14T23:56:24.737Z,70.12
2018-09-14T23:58:54.733Z,71.59
